Time;durP1;ratioP1;P1;durP2;ratioP2;P2;SDS_P1;SDS_P2;PMS_P1;PMS_P2;Temp;Humidity;BMP_temperature;BMP_pressure;BME280_temperature;BME280_humidity;BME280_pressure;Samples;Min_cycle;Max_cycle;Signal;HPM_P1;HPM_P2
2022/10/24 00:01:14;;;;;;;15.45;10.48;;;13.50;99.90;;;;;;4984013;28;20042;-78
2022/10/24 00:03:42;;;;;;;18.17;11.23;;;13.40;99.90;;;;;;4986179;28;20050;-78
2022/10/24 00:06:10;;;;;;;21.55;11.85;;;13.40;99.90;;;;;;4990262;28;20061;-78
2022/10/24 00:08:38;;;;;;;15.73;9.98;;;13.50;99.90;;;;;;4983593;28;20052;-78
2022/10/24 00:11:14;;;;;;;22.02;12.00;;;13.40;99.90;;;;;;4991078;28;20052;-78
2022/10/24 00:13:42;;;;;;;19.95;12.40;;;13.40;99.90;;;;;;4980015;23;20042;-70
2022/10/24 00:16:09;;;;;;;24.13;12.30;;;13.30;99.90;;;;;;4991968;28;20045;-70
2022/10/24 00:18:36;;;;;;;17.52;12.30;;;13.30;99.90;;;;;;4995931;28;20060;-70
2022/10/24 00:21:04;;;;;;;27.75;14.18;;;13.30;99.90;;;;;;4990539;28;20042;-70
2022/10/24 00:23:30;;;;;;;19.02;13.55;;;13.30;99.90;;;;;;4992824;28;20045;-70
2022/10/24 00:26:00;;;;;;;26.27;13.90;;;13.30;99.90;;;;;;4993253;28;20049;-70
2022/10/24 00:28:29;;;;;;;27.88;13.70;;;13.30;99.90;;;;;;4992656;28;20042;-70
2022/10/24 00:30:56;;;;;;;23.33;12.45;;;13.30;99.90;;;;;;4994912;28;20459;-70
2022/10/24 00:33:24;;;;;;;21.85;12.48;;;13.30;99.90;;;;;;4976429;28;20072;-70
2022/10/24 00:35:51;;;;;;;17.63;12.07;;;13.30;99.90;;;;;;4978870;28;20531;-70
2022/10/24 00:38:17;;;;;;;32.17;14.07;;;13.30;99.90;;;;;;4977533;28;20849;-70
2022/10/24 00:40:44;;;;;;;18.75;12.00;;;13.30;99.90;;;;;;4997808;28;20041;-70
2022/10/24 00:43:21;;;;;;;21.63;13.77;;;13.30;99.90;;;;;;4961102;28;20045;-70
2022/10/24 00:46:02;;;;;;;22.30;13.13;;;13.20;99.90;;;;;;4979137;28;20050;-70
2022/10/24 00:48:45;;;;;;;18.20;12.90;;;13.20;99.90;;;;;;4994683;28;20073;-70
2022/10/24 00:51:36;;;;;;;20.77;11.55;;;13.20;99.90;;;;;;4998041;28;20054;-70
2022/10/24 00:54:07;;;;;;;23.42;12.45;;;13.20;99.90;;;;;;4990109;28;20046;-70
2022/10/24 00:56:38;;;;;;;21.20;11.98;;;13.20;99.90;;;;;;4998834;28;20034;-70
2022/10/24 00:59:07;;;;;;;16.80;11.77;;;13.20;99.90;;;;;;4978219;28;20056;-70
2022/10/24 01:01:35;;;;;;;20.90;12.45;;;13.20;99.90;;;;;;4994257;28;20042;-70
2022/10/24 01:04:02;;;;;;;22.50;12.65;;;13.10;99.90;;;;;;4978247;28;20046;-70
2022/10/24 01:07:11;;;;;;;18.80;11.60;;;13.10;99.90;;;;;;5037485;22;20067;-77
2022/10/24 01:10:07;;;;;;;19.08;11.10;;;13.10;99.90;;;;;;5029763;28;20044;-77
2022/10/24 01:12:43;;;;;;;17.85;10.90;;;13.10;99.90;;;;;;5005095;28;20281;-77
2022/10/24 01:15:38;;;;;;;19.42;11.38;;;13.10;99.90;;;;;;5010818;28;21769;-78
2022/10/24 01:18:29;;;;;;;18.33;11.25;;;13.10;99.90;;;;;;5028450;28;20613;-77
2022/10/24 01:21:23;;;;;;;20.02;12.10;;;13.10;99.90;;;;;;5024017;28;20052;-77
2022/10/24 01:24:22;;;;;;;25.52;11.18;;;13.10;99.90;;;;;;5055931;28;20531;-76
2022/10/24 01:26:58;;;;;;;18.08;11.43;;;13.20;99.90;;;;;;5027109;28;20498;-77
2022/10/24 01:29:39;;;;;;;17.70;10.98;;;13.10;99.90;;;;;;5016921;28;20063;-78
2022/10/24 01:32:14;;;;;;;27.42;11.75;;;13.10;99.90;;;;;;5055040;28;20140;-78
2022/10/24 01:34:47;;;;;;;20.95;12.43;;;13.10;99.90;;;;;;5014081;28;20041;-77
2022/10/24 01:37:22;;;;;;;19.00;12.63;;;13.10;99.90;;;;;;5023807;28;20109;-78
2022/10/24 01:39:56;;;;;;;18.52;11.40;;;13.10;99.90;;;;;;5045186;28;20537;-78
2022/10/24 01:42:26;;;;;;;26.13;12.13;;;13.10;99.90;;;;;;5030416;28;20090;-78
2022/10/24 01:44:56;;;;;;;18.80;11.48;;;13.10;99.90;;;;;;5038818;28;20405;-77
2022/10/24 01:47:30;;;;;;;23.77;12.07;;;13.10;99.90;;;;;;5068923;28;20054;-79
2022/10/24 01:50:06;;;;;;;18.23;11.40;;;13.20;99.90;;;;;;5050230;28;20055;-78
2022/10/24 01:52:37;;;;;;;17.23;10.63;;;13.10;99.90;;;;;;5066522;28;20130;-77
2022/10/24 01:55:05;;;;;;;22.02;11.90;;;13.20;99.90;;;;;;5074066;28;20048;-77
2022/10/24 01:57:33;;;;;;;22.80;11.90;;;13.20;99.90;;;;;;5063236;28;20127;-78
2022/10/24 02:00:00;;;;;;;22.48;13.55;;;13.20;99.90;;;;;;5068953;28;20048;-78
2022/10/24 02:02:44;;;;;;;24.38;13.00;;;13.20;99.90;;;;;;5088180;28;20036;-78
2022/10/24 02:05:20;;;;;;;19.85;12.73;;;13.20;99.90;;;;;;5065867;28;20068;-77
2022/10/24 02:07:55;;;;;;;21.27;13.60;;;13.20;99.90;;;;;;5057868;28;20047;-77
2022/10/24 02:10:27;;;;;;;24.90;14.10;;;13.20;99.90;;;;;;5077132;28;20072;-77
2022/10/24 02:13:04;;;;;;;22.20;14.10;;;13.20;99.90;;;;;;5085415;28;20094;-77
2022/10/24 02:15:35;;;;;;;29.88;16.02;;;13.20;99.90;;;;;;5065935;28;20052;-78
2022/10/24 02:18:02;;;;;;;29.63;14.55;;;13.20;99.90;;;;;;5076303;28;20057;-78
2022/10/24 02:21:05;;;;;;;26.95;15.00;;;13.30;99.90;;;;;;5070436;28;20040;-78
2022/10/24 02:24:11;;;;;;;28.25;13.88;;;13.30;99.90;;;;;;4990031;28;20050;-79
2022/10/24 02:27:16;;;;;;;29.67;14.23;;;13.30;99.90;;;;;;5039530;28;20067;-78
2022/10/24 02:29:54;;;;;;;24.70;13.67;;;13.30;99.90;;;;;;4993821;28;20046;-78
2022/10/24 02:32:32;;;;;;;27.00;13.85;;;13.40;99.90;;;;;;4972750;28;20149;-78
2022/10/24 02:35:01;;;;;;;32.45;15.13;;;13.40;99.90;;;;;;5031253;28;20048;-77
2022/10/24 02:37:31;;;;;;;27.30;14.82;;;13.40;99.90;;;;;;5070768;28;20538;-77
2022/10/24 02:39:59;;;;;;;29.98;16.20;;;13.40;99.90;;;;;;5073234;28;20601;-77
2022/10/24 02:42:28;;;;;;;36.15;15.35;;;13.40;99.90;;;;;;5057897;28;20040;-78
2022/10/24 02:45:00;;;;;;;32.22;16.23;;;13.50;99.90;;;;;;5077339;28;20072;-78
2022/10/24 02:47:29;;;;;;;29.27;13.95;;;13.40;99.90;;;;;;5080385;28;20062;-78
2022/10/24 02:49:56;;;;;;;30.60;15.82;;;13.50;99.90;;;;;;5054710;28;20082;-79
2022/10/24 02:52:24;;;;;;;35.83;16.08;;;13.40;99.90;;;;;;5042344;28;20443;-78
2022/10/24 02:54:51;;;;;;;28.98;16.20;;;13.40;99.90;;;;;;5052797;28;20134;-78
2022/10/24 02:57:20;;;;;;;33.58;16.17;;;13.50;99.90;;;;;;5054253;28;20135;-77
2022/10/24 02:59:47;;;;;;;30.85;16.60;;;13.50;99.90;;;;;;5082396;28;20127;-79
2022/10/24 03:02:14;;;;;;;32.15;17.35;;;13.50;99.90;;;;;;5075793;28;20036;-78
2022/10/24 03:04:40;;;;;;;30.58;16.90;;;13.50;99.90;;;;;;5052675;28;20056;-79
2022/10/24 03:07:07;;;;;;;40.05;17.83;;;13.50;99.90;;;;;;5053563;28;20063;-78
2022/10/24 03:09:34;;;;;;;28.40;16.40;;;13.40;99.90;;;;;;5067473;28;20417;-77
2022/10/24 03:12:02;;;;;;;28.55;15.15;;;13.50;99.90;;;;;;5067410;28;20060;-77
2022/10/24 03:14:31;;;;;;;27.45;15.90;;;13.50;99.90;;;;;;5068314;28;20040;-78
2022/10/24 03:16:57;;;;;;;33.45;15.23;;;13.50;99.90;;;;;;5070440;28;20127;-77
2022/10/24 03:19:24;;;;;;;33.97;16.10;;;13.50;99.90;;;;;;5067094;28;20075;-78
2022/10/24 03:21:51;;;;;;;27.95;15.38;;;13.50;99.90;;;;;;5086379;28;20062;-78
2022/10/24 03:24:18;;;;;;;30.75;15.40;;;13.50;99.90;;;;;;5061165;28;20104;-77
2022/10/24 03:27:02;;;;;;;27.20;12.85;;;13.50;99.90;;;;;;5067291;28;20045;-78
2022/10/24 03:29:29;;;;;;;21.90;12.30;;;13.50;99.90;;;;;;5067739;28;20058;-78
2022/10/24 03:31:56;;;;;;;25.23;12.18;;;13.50;99.90;;;;;;5066857;28;20067;-77
2022/10/24 03:34:23;;;;;;;24.95;11.07;;;13.60;99.90;;;;;;5050037;28;20390;-78
2022/10/24 03:36:49;;;;;;;23.27;10.48;;;13.60;99.90;;;;;;5051066;28;20047;-78
2022/10/24 03:39:16;;;;;;;20.98;11.30;;;13.60;99.90;;;;;;5066504;28;20054;-78
2022/10/24 03:41:43;;;;;;;22.45;10.70;;;13.60;99.90;;;;;;5064499;28;20040;-78
2022/10/24 03:44:10;;;;;;;21.05;11.02;;;13.70;99.90;;;;;;5066320;28;20052;-77
2022/10/24 03:46:37;;;;;;;21.30;11.45;;;13.60;99.90;;;;;;5074917;28;20063;-77
2022/10/24 03:49:04;;;;;;;18.85;11.20;;;13.70;99.90;;;;;;5067511;28;20048;-77
2022/10/24 03:51:31;;;;;;;22.17;11.10;;;13.70;99.90;;;;;;5054068;28;20070;-78
2022/10/24 03:53:58;;;;;;;21.60;10.07;;;13.70;99.90;;;;;;5047619;28;20041;-78
2022/10/24 03:56:25;;;;;;;28.27;10.88;;;13.70;99.90;;;;;;5048521;28;20681;-78
2022/10/24 03:58:52;;;;;;;22.40;9.93;;;13.70;99.90;;;;;;5067508;28;20058;-78
2022/10/24 04:01:18;;;;;;;25.85;10.27;;;13.70;99.90;;;;;;5048994;28;20036;-75
2022/10/24 04:03:46;;;;;;;21.00;11.25;;;13.70;99.90;;;;;;5049311;28;20076;-76
2022/10/24 04:06:13;;;;;;;23.10;10.05;;;13.80;99.90;;;;;;5084527;28;20130;-78
2022/10/24 04:08:40;;;;;;;20.63;9.38;;;13.70;99.90;;;;;;5088868;28;20040;-79
2022/10/24 04:11:07;;;;;;;18.63;10.88;;;13.80;99.90;;;;;;5071073;28;20447;-78
2022/10/24 04:13:34;;;;;;;20.33;9.90;;;13.80;99.90;;;;;;5079770;28;20465;-78
2022/10/24 04:16:01;;;;;;;23.08;10.70;;;13.80;99.90;;;;;;5068751;28;20119;-79
2022/10/24 04:18:27;;;;;;;27.88;11.00;;;13.80;99.90;;;;;;5050545;28;20716;-76
2022/10/24 04:20:54;;;;;;;26.60;10.70;;;13.80;99.90;;;;;;5070235;28;20146;-76
2022/10/24 04:23:21;;;;;;;27.98;12.57;;;13.80;99.90;;;;;;5071935;28;20467;-76
2022/10/24 04:25:50;;;;;;;20.02;10.65;;;13.80;99.90;;;;;;5048462;28;20095;-76
2022/10/24 04:28:17;;;;;;;29.95;11.93;;;13.80;99.90;;;;;;5071215;28;20371;-79
2022/10/24 04:30:44;;;;;;;26.15;11.65;;;13.80;99.90;;;;;;5053622;28;20063;-76
2022/10/24 04:33:10;;;;;;;25.13;11.75;;;13.80;99.90;;;;;;5060230;28;20044;-77
2022/10/24 04:35:37;;;;;;;26.27;11.13;;;13.80;99.90;;;;;;5051084;28;20071;-77
2022/10/24 04:38:06;;;;;;;33.03;11.93;;;13.80;99.90;;;;;;5074737;28;20556;-77
2022/10/24 04:40:32;;;;;;;27.67;12.30;;;13.80;99.90;;;;;;5052876;28;20119;-76
2022/10/24 04:42:59;;;;;;;31.35;13.23;;;13.80;99.90;;;;;;5056147;28;20048;-77
2022/10/24 04:45:26;;;;;;;25.38;11.57;;;13.70;99.90;;;;;;5069301;28;20223;-76
2022/10/24 04:47:53;;;;;;;27.50;12.75;;;13.80;99.90;;;;;;5057556;28;20056;-77
2022/10/24 04:50:20;;;;;;;22.00;11.18;;;13.80;99.90;;;;;;5073858;28;20097;-77
2022/10/24 04:52:48;;;;;;;21.98;10.52;;;13.80;99.90;;;;;;5072462;28;20043;-77
2022/10/24 04:55:15;;;;;;;21.63;10.48;;;13.80;99.90;;;;;;5070254;28;20070;-77
2022/10/24 04:57:42;;;;;;;28.27;11.43;;;13.80;99.90;;;;;;5053367;28;20048;-76
2022/10/24 05:00:10;;;;;;;17.90;10.15;;;13.90;99.90;;;;;;5066717;28;20114;-77
2022/10/24 05:02:37;;;;;;;21.75;10.70;;;13.80;99.90;;;;;;5062957;28;20044;-77
2022/10/24 05:05:04;;;;;;;26.13;10.48;;;13.90;99.90;;;;;;5072705;28;20696;-77
2022/10/24 05:07:32;;;;;;;24.63;9.90;;;13.90;99.90;;;;;;5055476;28;20614;-77
2022/10/24 05:09:58;;;;;;;19.92;10.43;;;13.90;99.90;;;;;;5093057;28;20142;-77
2022/10/24 05:12:25;;;;;;;21.20;10.30;;;13.90;99.90;;;;;;5052366;28;20577;-78
2022/10/24 05:14:52;;;;;;;27.40;10.65;;;13.90;99.90;;;;;;5071456;28;20060;-77
2022/10/24 05:17:19;;;;;;;31.35;11.57;;;13.90;99.90;;;;;;5050586;28;20560;-78
2022/10/24 05:19:46;;;;;;;21.63;11.75;;;13.90;99.90;;;;;;5070914;28;20040;-77
2022/10/24 05:22:13;;;;;;;30.02;11.38;;;13.80;99.90;;;;;;5057410;28;20070;-76
2022/10/24 05:24:40;;;;;;;24.38;10.80;;;13.90;99.90;;;;;;5052628;28;20093;-78
2022/10/24 05:27:07;;;;;;;23.33;9.50;;;13.90;99.90;;;;;;5083955;28;20245;-77
2022/10/24 05:29:34;;;;;;;18.10;8.73;;;13.80;99.90;;;;;;5082088;28;20044;-76
2022/10/24 05:32:03;;;;;;;19.52;10.38;;;13.80;99.90;;;;;;5063565;28;20102;-77
2022/10/24 05:34:30;;;;;;;19.90;9.18;;;13.80;99.90;;;;;;5075666;28;20094;-78
2022/10/24 05:36:57;;;;;;;17.98;9.07;;;13.80;99.90;;;;;;5076743;28;20052;-76
2022/10/24 05:39:24;;;;;;;25.17;10.55;;;13.80;99.90;;;;;;5081904;28;20040;-78
2022/10/24 05:41:51;;;;;;;26.90;9.70;;;13.80;99.90;;;;;;5084776;28;20093;-76
2022/10/24 05:44:21;;;;;;;20.15;9.88;;;13.80;99.90;;;;;;5101756;28;20185;-77
2022/10/24 05:46:48;;;;;;;28.45;9.90;;;13.70;99.90;;;;;;5070979;28;20036;-76
2022/10/24 05:49:14;;;;;;;14.50;9.50;;;13.80;99.90;;;;;;5108383;28;20247;-78
2022/10/24 05:51:41;;;;;;;21.10;8.98;;;13.80;99.90;;;;;;5080387;28;20079;-77
2022/10/24 05:54:08;;;;;;;22.45;8.88;;;13.80;99.90;;;;;;5057062;28;20064;-77
2022/10/24 05:56:36;;;;;;;22.85;9.40;;;13.80;99.90;;;;;;5057224;28;20043;-77
2022/10/24 05:59:02;;;;;;;22.13;8.93;;;13.80;99.90;;;;;;5064495;28;20578;-79
2022/10/24 06:01:30;;;;;;;26.67;10.05;;;13.80;99.90;;;;;;5059763;28;20976;-77
2022/10/24 06:03:57;;;;;;;27.58;9.57;;;13.80;99.90;;;;;;5071490;28;20104;-77
2022/10/24 06:06:24;;;;;;;18.90;9.82;;;13.80;99.90;;;;;;5051689;28;20162;-77
2022/10/24 06:08:51;;;;;;;24.00;10.23;;;13.80;99.90;;;;;;5069740;28;20050;-78
2022/10/24 06:11:18;;;;;;;22.27;9.52;;;13.80;99.90;;;;;;5092608;28;20054;-78
2022/10/24 06:13:45;;;;;;;24.27;9.80;;;13.80;99.90;;;;;;5046767;22;20490;-75
2022/10/24 06:16:12;;;;;;;23.98;10.15;;;13.70;99.90;;;;;;4989485;28;20526;-77
2022/10/24 06:18:38;;;;;;;21.75;10.55;;;13.70;99.90;;;;;;4979397;28;20049;-74
2022/10/24 06:21:07;;;;;;;25.88;11.18;;;13.70;99.90;;;;;;4984711;28;20083;-75
2022/10/24 06:23:35;;;;;;;19.08;9.88;;;13.70;99.90;;;;;;4981474;28;20038;-73
2022/10/24 06:26:07;;;;;;;28.13;10.65;;;13.70;99.90;;;;;;4999762;28;20084;-73
2022/10/24 06:28:34;;;;;;;21.17;10.38;;;13.70;99.90;;;;;;4993955;28;20053;-77
2022/10/24 06:31:02;;;;;;;25.38;11.23;;;13.70;99.90;;;;;;4997523;28;20144;-76
2022/10/24 06:33:30;;;;;;;18.98;10.75;;;13.70;99.90;;;;;;4996713;28;20045;-75
2022/10/24 06:36:03;;;;;;;20.23;9.32;;;13.70;99.90;;;;;;5008030;28;20569;-76
2022/10/24 06:38:31;;;;;;;25.63;10.43;;;13.70;99.90;;;;;;4991540;28;20127;-77
2022/10/24 06:41:06;;;;;;;22.83;10.00;;;13.70;99.90;;;;;;5004120;28;20037;-78
2022/10/24 06:43:34;;;;;;;23.20;10.30;;;13.80;99.90;;;;;;4982973;28;20057;-76
2022/10/24 06:46:08;;;;;;;18.77;8.95;;;13.80;99.90;;;;;;5015696;28;20361;-76
2022/10/24 06:48:35;;;;;;;24.80;10.38;;;13.80;99.90;;;;;;5019841;28;20123;-74
2022/10/24 06:51:03;;;;;;;13.23;10.02;;;13.80;99.90;;;;;;5022709;28;20037;-76
2022/10/24 06:53:31;;;;;;;19.38;9.50;;;13.80;99.90;;;;;;5003425;28;20049;-76
2022/10/24 06:56:02;;;;;;;16.80;8.57;;;13.80;99.90;;;;;;5002044;28;20466;-75
2022/10/24 06:58:34;;;;;;;21.83;10.07;;;13.90;99.90;;;;;;5002548;28;20103;-74
2022/10/24 07:01:07;;;;;;;19.98;10.73;;;13.90;99.90;;;;;;5003264;28;20045;-74
2022/10/24 07:03:34;;;;;;;16.10;8.90;;;13.90;99.90;;;;;;4985096;28;20053;-75
2022/10/24 07:06:09;;;;;;;20.52;10.55;;;13.90;99.90;;;;;;4992761;28;20521;-75
2022/10/24 07:08:36;;;;;;;14.55;9.65;;;13.90;99.90;;;;;;4974777;28;20053;-76
2022/10/24 07:11:02;;;;;;;17.75;10.32;;;13.90;99.90;;;;;;4989456;28;20041;-76
2022/10/24 07:13:29;;;;;;;15.27;9.93;;;13.90;99.90;;;;;;4976417;28;20136;-76
2022/10/24 07:15:56;;;;;;;22.55;10.48;;;13.90;99.90;;;;;;4996301;28;20508;-76
2022/10/24 07:18:23;;;;;;;24.02;10.43;;;14.00;99.90;;;;;;4989685;28;20041;-76
2022/10/24 07:20:50;;;;;;;17.02;10.23;;;14.00;99.90;;;;;;4991659;28;20152;-75
2022/10/24 07:23:17;;;;;;;15.63;9.43;;;14.10;99.90;;;;;;4995060;28;20054;-74
2022/10/24 07:25:45;;;;;;;19.42;9.23;;;14.00;99.90;;;;;;4993094;28;20073;-76
2022/10/24 07:28:12;;;;;;;21.83;10.90;;;14.10;99.90;;;;;;5009783;28;20128;-76
2022/10/24 07:30:39;;;;;;;18.38;10.93;;;14.10;99.90;;;;;;5001723;28;20053;-74
2022/10/24 07:33:07;;;;;;;17.77;10.60;;;14.20;99.90;;;;;;4974612;28;20068;-76
2022/10/24 07:35:33;;;;;;;23.98;11.95;;;14.20;99.90;;;;;;4978035;28;21068;-74
2022/10/24 07:38:00;;;;;;;16.35;12.05;;;14.30;99.90;;;;;;4978360;28;20061;-74
2022/10/24 07:40:27;;;;;;;23.00;11.98;;;14.30;99.90;;;;;;4975855;28;20042;-76
2022/10/24 07:42:53;;;;;;;19.27;11.77;;;14.40;99.90;;;;;;4982073;28;20042;-76
2022/10/24 07:45:20;;;;;;;17.13;11.48;;;14.40;99.90;;;;;;4981252;28;20076;-75
2022/10/24 07:47:47;;;;;;;18.50;11.57;;;14.40;99.90;;;;;;4977003;28;20545;-76
2022/10/24 07:50:16;;;;;;;15.23;11.45;;;14.50;99.90;;;;;;4975420;28;20161;-78
2022/10/24 07:52:42;;;;;;;19.55;11.63;;;14.60;99.90;;;;;;5005241;28;20078;-77
2022/10/24 07:55:09;;;;;;;17.85;12.68;;;14.60;99.90;;;;;;4980573;28;20053;-76
2022/10/24 07:57:36;;;;;;;22.20;13.55;;;14.60;99.90;;;;;;4980048;28;20523;-75
2022/10/24 08:00:04;;;;;;;17.48;13.70;;;14.60;99.90;;;;;;4976187;28;20054;-76
2022/10/24 08:02:38;;;;;;;24.63;14.25;;;14.60;99.90;;;;;;4976910;28;20468;-77
2022/10/24 08:05:05;;;;;;;14.98;13.02;;;14.70;99.90;;;;;;4992421;28;20152;-77
2022/10/24 08:07:35;;;;;;;18.58;14.85;;;14.70;99.90;;;;;;4984254;28;20046;-75
2022/10/24 08:10:03;;;;;;;21.17;14.30;;;14.70;99.90;;;;;;4987102;28;20174;-75
2022/10/24 08:12:30;;;;;;;22.77;15.30;;;14.70;99.90;;;;;;4970100;28;20082;-75
2022/10/24 08:14:56;;;;;;;19.55;14.75;;;14.70;99.90;;;;;;4978018;28;20042;-76
2022/10/24 08:17:23;;;;;;;21.60;15.02;;;14.70;99.90;;;;;;4991746;28;20142;-76
2022/10/24 08:19:50;;;;;;;19.33;13.80;;;14.70;99.90;;;;;;5006343;23;20050;-71
2022/10/24 08:22:17;;;;;;;17.55;12.85;;;14.70;99.90;;;;;;4982948;28;20100;-68
2022/10/24 08:24:44;;;;;;;21.35;14.25;;;14.80;99.90;;;;;;4994264;28;20329;-70
2022/10/24 08:27:11;;;;;;;22.10;15.77;;;14.90;99.90;;;;;;4992035;28;20046;-70
2022/10/24 08:29:38;;;;;;;24.83;15.90;;;15.10;99.90;;;;;;4986787;28;20488;-70
2022/10/24 08:32:05;;;;;;;21.67;17.10;;;15.30;99.90;;;;;;4992098;28;20060;-71
2022/10/24 08:34:36;;;;;;;21.45;18.02;;;15.40;99.90;;;;;;4987979;28;20539;-70
2022/10/24 08:37:03;;;;;;;20.15;18.02;;;15.40;99.90;;;;;;4982623;28;20187;-75
2022/10/24 08:39:30;;;;;;;21.02;18.13;;;15.30;99.90;;;;;;4986209;28;20479;-76
2022/10/24 08:42:02;;;;;;;19.45;17.73;;;15.30;99.90;;;;;;4987356;28;20050;-76
2022/10/24 08:44:33;;;;;;;25.20;18.85;;;15.30;99.90;;;;;;4992409;28;20109;-75
2022/10/24 08:47:23;;;;;;;19.02;17.23;;;15.30;99.90;;;;;;4989707;28;20050;-77
2022/10/24 08:50:15;;;;;;;19.25;17.65;;;15.40;99.90;;;;;;4983277;28;20153;-76
2022/10/24 08:53:06;;;;;;;22.20;19.13;;;15.40;99.90;;;;;;4985920;28;20814;-76
2022/10/24 08:55:52;;;;;;;25.48;18.48;;;15.50;99.90;;;;;;4985903;28;20049;-76
2022/10/24 08:58:34;;;;;;;20.73;18.70;;;15.70;99.90;;;;;;4971645;28;20049;-76
2022/10/24 09:01:05;;;;;;;22.17;19.88;;;15.90;99.90;;;;;;4983715;28;20056;-76
2022/10/24 09:03:45;;;;;;;23.08;20.83;;;15.90;99.90;;;;;;4969508;28;20141;-76
2022/10/24 09:06:30;;;;;;;23.10;20.60;;;16.10;99.90;;;;;;4990264;28;20390;-76
2022/10/24 09:09:00;;;;;;;22.98;20.67;;;16.20;99.90;;;;;;4995918;28;20057;-75
2022/10/24 09:11:38;;;;;;;23.60;21.35;;;16.40;99.90;;;;;;4972063;28;20707;-76
2022/10/24 09:14:17;;;;;;;25.70;23.33;;;16.60;99.90;;;;;;4995284;28;20293;-75
2022/10/24 09:16:51;;;;;;;26.55;24.20;;;16.60;99.90;;;;;;4990823;28;20080;-77
2022/10/24 09:19:21;;;;;;;28.20;25.77;;;16.60;99.90;;;;;;4974556;28;20050;-75
2022/10/24 09:21:50;;;;;;;25.67;23.55;;;16.80;99.90;;;;;;4972933;28;20042;-76
2022/10/24 09:24:41;;;;;;;27.63;25.25;;;16.90;99.90;;;;;;4990663;28;20130;-76
2022/10/24 09:27:19;;;;;;;28.17;25.88;;;17.00;99.90;;;;;;4988758;28;20503;-75
2022/10/24 09:29:50;;;;;;;29.83;26.65;;;17.10;99.90;;;;;;4996160;28;20042;-76
2022/10/24 09:32:20;;;;;;;28.35;25.42;;;17.00;99.90;;;;;;4998182;28;20050;-76
2022/10/24 09:34:48;;;;;;;27.20;24.98;;;17.00;99.90;;;;;;4988921;28;20073;-76
2022/10/24 09:37:31;;;;;;;26.52;24.73;;;17.00;99.90;;;;;;4977215;28;20045;-76
2022/10/24 09:40:30;;;;;;;22.17;20.85;;;17.10;99.90;;;;;;4990609;28;20046;-76
2022/10/24 09:43:16;;;;;;;24.33;22.52;;;17.10;99.90;;;;;;4987035;28;20052;-76
2022/10/24 09:45:44;;;;;;;;;;;17.10;99.90;;;;;;4988003;28;20052;-76
2022/10/24 09:48:37;;;;;;;24.95;22.80;;;17.20;99.90;;;;;;4991350;28;20072;-76
2022/10/24 09:51:05;;;;;;;22.70;21.00;;;17.20;99.90;;;;;;4994787;28;20152;-76
2022/10/24 09:53:54;;;;;;;23.25;21.75;;;17.10;99.90;;;;;;4989652;28;20132;-76
2022/10/24 09:56:31;;;;;;;24.13;22.33;;;17.20;99.90;;;;;;4993633;28;20042;-76
2022/10/24 09:59:25;;;;;;;21.73;20.30;;;17.10;99.90;;;;;;4991450;28;20058;-76
2022/10/24 10:01:52;;;;;;;22.98;21.05;;;17.20;99.90;;;;;;4977285;28;20504;-76
2022/10/24 10:04:19;;;;;;;21.95;20.45;;;17.40;99.90;;;;;;4993204;28;20045;-74
2022/10/24 10:06:49;;;;;;;21.35;19.95;;;17.60;99.90;;;;;;4994226;28;20050;-77
2022/10/24 10:09:25;;;;;;;21.25;19.85;;;17.70;99.90;;;;;;4992483;28;20042;-76
2022/10/24 10:11:56;;;;;;;22.40;20.90;;;17.80;99.90;;;;;;4991597;28;20056;-77
2022/10/24 10:14:31;;;;;;;22.10;20.50;;;17.90;99.90;;;;;;4979873;28;20057;-77
2022/10/24 10:17:05;;;;;;;23.00;21.40;;;17.80;99.90;;;;;;4995499;28;20117;-76
2022/10/24 10:19:37;;;;;;;22.75;21.13;;;17.90;99.90;;;;;;4989429;28;20452;-77
2022/10/24 10:22:20;;;;;;;24.13;22.42;;;17.80;99.90;;;;;;4975839;28;20483;-77
2022/10/24 10:24:48;;;;;;;24.90;22.98;;;18.00;99.90;;;;;;4989330;28;20071;-76
2022/10/24 10:27:37;;;;;;;25.05;23.13;;;17.90;99.90;;;;;;4981710;28;20052;-76
2022/10/24 10:30:16;;;;;;;24.13;22.42;;;17.90;99.90;;;;;;4987564;28;20499;-76
2022/10/24 10:33:16;;;;;;;23.90;21.58;;;17.80;99.90;;;;;;4972419;28;20165;-77
2022/10/24 10:36:03;;;;;;;23.30;21.70;;;17.60;99.90;;;;;;4989678;28;20053;-77
2022/10/24 10:38:49;;;;;;;26.98;25.17;;;17.50;99.90;;;;;;4989167;28;20462;-76
2022/10/24 10:41:35;;;;;;;25.38;23.33;;;17.50;99.90;;;;;;4992730;28;20088;-75
2022/10/24 10:44:04;;;;;;;;;;;17.50;99.90;;;;;;4995317;28;20049;-76
2022/10/24 10:46:57;;;;;;;23.92;22.23;;;17.40;99.90;;;;;;4987493;28;20371;-75
2022/10/24 10:49:31;;;;;;;24.52;22.25;;;17.40;99.90;;;;;;4991882;28;20275;-75
2022/10/24 10:52:29;;;;;;;25.15;23.15;;;17.30;99.90;;;;;;4976006;28;20050;-74
2022/10/24 10:55:07;;;;;;;23.88;22.33;;;17.40;99.90;;;;;;4984988;28;20038;-75
2022/10/24 10:57:52;;;;;;;23.80;21.90;;;17.30;99.90;;;;;;4986297;28;20057;-75
2022/10/24 11:00:27;;;;;;;22.83;21.20;;;17.30;99.90;;;;;;4993315;28;20048;-75
2022/10/24 11:03:36;;;;;;;24.25;22.50;;;17.20;99.90;;;;;;4975900;28;20371;-74
2022/10/24 11:06:43;;;;;;;22.35;20.55;;;17.10;99.90;;;;;;4992214;28;20293;-74
2022/10/24 11:09:34;;;;;;;23.17;21.50;;;17.00;99.90;;;;;;4977413;28;20065;-77
2022/10/24 11:12:21;;;;;;;22.45;20.88;;;17.00;99.90;;;;;;4985970;28;20138;-76
2022/10/24 11:15:01;;;;;;;23.80;21.52;;;16.90;99.90;;;;;;4987414;28;20049;-75
2022/10/24 11:17:39;;;;;;;22.77;20.95;;;16.90;99.90;;;;;;4987076;28;20676;-75
2022/10/24 11:20:26;;;;;;;26.35;23.85;;;16.90;99.90;;;;;;4958636;28;20450;-76
2022/10/24 11:23:28;;;;;;;24.50;22.60;;;16.90;99.90;;;;;;4963981;28;20137;-76
2022/10/24 11:26:08;;;;;;;25.08;22.83;;;17.00;99.90;;;;;;4952513;28;20367;-76
2022/10/24 11:28:51;;;;;;;23.00;21.50;;;17.50;99.90;;;;;;4969265;28;20543;-76
2022/10/24 11:31:26;;;;;;;21.50;20.05;;;17.80;99.90;;;;;;4987003;28;20045;-76
2022/10/24 11:34:19;;;;;;;;;;;17.80;99.90;;;;;;4958435;28;20136;-76
2022/10/24 11:36:52;;;;;;;22.60;21.00;;;17.60;99.90;;;;;;4967518;28;20289;-75
2022/10/24 11:39:28;;;;;;;21.85;20.25;;;17.60;99.90;;;;;;4975787;28;20641;-76
2022/10/24 11:42:14;;;;;;;21.80;20.30;;;17.50;99.90;;;;;;4993061;28;20050;-76
2022/10/24 11:45:00;;;;;;;21.75;20.15;;;17.50;99.90;;;;;;4987526;28;20377;-76
2022/10/24 11:47:26;;;;;;;21.58;19.83;;;17.50;99.90;;;;;;4981393;28;20247;-75
2022/10/24 11:50:06;;;;;;;22.50;20.88;;;17.50;99.90;;;;;;4989403;28;20046;-75
2022/10/24 11:52:43;;;;;;;21.77;20.23;;;17.60;99.90;;;;;;4986998;28;20050;-75
2022/10/24 11:55:37;;;;;;;22.95;20.73;;;17.50;99.90;;;;;;4957523;28;20130;-75
2022/10/24 11:58:18;;;;;;;22.08;20.30;;;17.50;99.90;;;;;;4976136;28;20132;-75
2022/10/24 12:00:54;;;;;;;21.65;20.25;;;17.50;99.90;;;;;;4969833;28;20042;-76
2022/10/24 12:03:59;;;;;;;22.80;20.75;;;17.40;99.90;;;;;;4988577;28;20046;-76
2022/10/24 12:06:32;;;;;;;24.80;22.67;;;17.30;99.90;;;;;;4962259;28;20328;-75
2022/10/24 12:09:30;;;;;;;22.15;20.50;;;17.30;99.90;;;;;;4988313;28;20129;-75
2022/10/24 12:12:06;;;;;;;23.42;21.52;;;17.40;99.90;;;;;;4981635;28;20050;-76
2022/10/24 12:14:55;;;;;;;23.10;21.25;;;17.40;99.90;;;;;;4981490;28;20077;-75
2022/10/24 12:17:56;;;;;;;22.25;20.25;;;17.40;99.90;;;;;;4992351;28;20038;-75
2022/10/24 12:20:25;;;;;;;21.65;19.98;;;17.30;99.90;;;;;;4990275;28;20041;-75
2022/10/24 12:22:54;;;;;;;23.55;21.75;;;17.30;99.90;;;;;;4988090;28;20121;-75
2022/10/24 12:25:32;;;;;;;22.73;21.08;;;17.30;99.90;;;;;;4988858;28;20133;-75
2022/10/24 12:28:03;;;;;;;23.98;22.30;;;17.20;99.90;;;;;;4990266;28;20058;-76
2022/10/24 12:30:35;;;;;;;23.60;21.88;;;17.30;99.90;;;;;;4985716;28;20488;-75
2022/10/24 12:33:24;;;;;;;23.02;21.10;;;17.30;99.90;;;;;;4984901;28;20408;-75
2022/10/24 12:35:55;;;;;;;22.77;20.85;;;17.30;99.90;;;;;;4985651;28;20046;-76
2022/10/24 12:38:27;;;;;;;22.77;21.17;;;17.30;99.90;;;;;;4992310;28;20068;-75
2022/10/24 12:41:05;;;;;;;23.10;21.10;;;17.30;99.90;;;;;;4979092;28;20076;-75
2022/10/24 12:43:32;;;;;;;20.88;19.48;;;17.30;99.90;;;;;;4974764;28;20120;-75
2022/10/24 12:46:23;;;;;;;22.40;20.75;;;17.30;99.90;;;;;;4994111;28;20056;-76
2022/10/24 12:48:55;;;;;;;22.13;20.63;;;17.30;99.90;;;;;;4964060;28;20050;-76
2022/10/24 12:51:38;;;;;;;23.95;22.38;;;17.20;99.90;;;;;;4988299;28;20700;-75
2022/10/24 12:54:11;;;;;;;25.48;23.70;;;17.00;99.90;;;;;;4972807;28;20132;-74
2022/10/24 12:56:50;;;;;;;26.02;24.25;;;16.90;99.90;;;;;;4990129;28;20445;-75
2022/10/24 12:59:21;;;;;;;25.52;23.70;;;16.70;99.90;;;;;;4992875;28;20104;-75